CheckWX is a tool to help pilots better visualize weather data.  It is not intended as a substitute for an official pre-flight weather briefing.

13:04:42 UTC

LFPV METAR
Villacoublay-Vélizy (BA 107) Air Base Airport
Villacoublay/Vélizy, France
Current

35 mins ago

LFPV 051230Z AUTO 15008KT 100V190 CAVOK 19/04 Q1016 NOSIG
Observed
Apr-5 @ 12:30 UTC
Wind
  • 150° at 8 KTS
Visibility
10,000+ meters
Flight Rules
VFR
Cloud Levels
  • Clear skies
Temperature
19°C / 66°F
Dewpoint
C / 39°F
Humidity
37%
Altimeter
30" Hg
Pressure
1015.92 hPa
Previous

1 hour ago

LFPV 051200Z AUTO 15008KT 100V190 CAVOK 18/03 Q1016 NOSIG
Observed
Apr-5 @ 12:00 UTC
Wind
  • 150° at 8 KTS
Visibility
10,000+ meters
Flight Rules
VFR
Cloud Levels
  • Clear skies
Temperature
18°C / 64°F
Dewpoint
C / 37°F
Humidity
37%
Altimeter
30" Hg
Pressure
1015.92 hPa
Previous

2 hours ago

LFPV 051130Z AUTO 15007KT 100V190 CAVOK 18/04 Q1017 NOSIG
Observed
Apr-5 @ 11:30 UTC
Wind
  • 150° at 7 KTS
Visibility
10,000+ meters
Flight Rules
VFR
Cloud Levels
  • Clear skies
Temperature
18°C / 64°F
Dewpoint
C / 39°F
Humidity
40%
Altimeter
30.03" Hg
Pressure
1016.92 hPa